Norfolk, VA (23520)

9:40 PM EST on December 25, 2014 (GMT -0500)
Historic Ghent Square | Change Station
CLOSE
Current Station
Personal Weather Station
Location: Norfolk, VA
Elevation: 8 ft
Nearby Weather Stations

Elev 8 ft 36.86 °N, 76.29 °W | Updated 12 seconds ago

Clear
Clear
46.2 °F
Feels Like 46 °F
N
0.0
Wind Variable Wind from WSW
Gusts 6.0 mph

Today
High -- | Low -- °F
--% Chance of Precip.
Yesterday
High -- | Low -- °F
Precip. -- in
7:16 AM 4:54 PM
Waxing Crescent, 21% visible
Pressure 30.21 in
Visibility 10.0 miles
Clouds Clear
Windchill 46 °F
Dew Point 37 °F
Humidity 69%
Rainfall 0.03 in
Snow Depth Not available.
UV 0 out of 12
Pollen .10 out of 12
Air Quality Not available.
Flu Activity Not available.
METAR KORF 260151Z AUTO 24004KT 10SM CLR 07/02 A3021 RMK AO2 SLP229 T00670017 TSNO

More Conditions Fewer Conditions

Pressure 30.21 in
Visibility 10.0 miles
Clouds Clear
Windchill 46 °F
Dew Point 37 °F
Humidity 69%
Rainfall 0.03 in
Snow Depth Not available.
UV 0 out of 12
Pollen .10 out of 12
Air Quality Not available.
Flu Activity Not available.
METAR KORF 260151Z AUTO 24004KT 10SM CLR 07/02 A3021 RMK AO2 SLP229 T00670017 TSNO

More Conditions Fewer Conditions

10-Day Weather Forecast

Almanac

Astronomy

Dec. 25, 2014 Rise Set
Actual Time
Civil Twilight
Nautical Twilight
Astronomical Twilight
Moon
Length of Visible Light
Length of Day
Tomorrow will be .
, % of the Moon is Illuminated

Today's Extremes

State Highs State Lows

Community

WunderPhotos

Upload Photos

1,780,519 photos uploaded!

WunderBlogs® & News

Nearby

Air Quality

  Air Quality AQ Index Pollutant
Not available.

Snow Depth

Station Depth Elevation

Earthquake Activity

City Distance Mag. Time & Date
Minimum magnitude displayed is 2.5.

Coastal Water Temperatures

Place Temperature

Nearby Weather Stations